Huvudsida
METAR-TAF:

METAR-TAF

Flygplatser :

Andøya flygplats. Andenes

Andøya, Norge

latitud: 69-18N, longitud: 016-09E, höjd: 1 m

Aktuellt väderrapport

Denna rapport gjordes för 12 minuter sedan, klockan 21:50 UTC
Vind 8 kt från syd/sydost
Temperatur -3°C
Fuktighet 63%
Tryck 1013 hPa
Sikt 10 km eller mer
Inga moln under 1 500 m eller inga cumulonimbus

METAR: ENAN 112150Z 15008KT CAVOK M03/M09 Q1013

Tid: 23:02 (22:02 UTC)

Väderprognos

Prognos gäller från 11 kl. 18 UTC till 12 kl. 18 UTC
Vind 15 kt från sydost
Sikt 10 km eller mer
Inga moln under 1 500 m eller inga cumulonimbus

TAF: ENAN 1118/1218 14015KT CAVOK

Aktuella väderrapporter och prognoser från 4000 flygplatser (METAR- och TAF-rapporter).

De tillgängliga stationerna syns som gula och röda prickar på kartan.

För musen över prickarna för att se namnen på stationerna.

Klicka sedan för att få väderrapporter och prognoser.

För att ändra kartan: Klicka på de gröna knapparna med ett svart kors på för att zooma in; den gröna knappen med ett streck på för att zooma ut; eller på de gröna pilarna för angränsande kartor.


METAR-TAF: